sensor_id;sensor_type;location;lat;lon;timestamp;P1;durP1;ratioP1;P2;durP2;ratioP2
75823;SDS011;64457;51.976;9.834;2023-10-31T00:00:37;7.90;;;2.97;;
75823;SDS011;64457;51.976;9.834;2023-10-31T00:03:06;8.30;;;3.13;;
75823;SDS011;64457;51.976;9.834;2023-10-31T00:05:36;9.50;;;3.13;;
75823;SDS011;64457;51.976;9.834;2023-10-31T00:08:04;11.10;;;3.60;;
75823;SDS011;64457;51.976;9.834;2023-10-31T00:10:32;8.03;;;3.70;;
75823;SDS011;64457;51.976;9.834;2023-10-31T00:12:59;7.50;;;3.13;;
75823;SDS011;64457;51.976;9.834;2023-10-31T00:15:27;7.90;;;3.53;;
75823;SDS011;64457;51.976;9.834;2023-10-31T00:17:56;8.40;;;3.40;;
75823;SDS011;64457;51.976;9.834;2023-10-31T00:20:23;9.70;;;3.90;;
75823;SDS011;64457;51.976;9.834;2023-10-31T00:22:53;9.33;;;3.83;;
75823;SDS011;64457;51.976;9.834;2023-10-31T00:25:20;13.13;;;4.10;;
75823;SDS011;64457;51.976;9.834;2023-10-31T00:27:48;9.50;;;4.43;;
75823;SDS011;64457;51.976;9.834;2023-10-31T00:30:17;14.17;;;4.20;;
75823;SDS011;64457;51.976;9.834;2023-10-31T00:32:44;10.33;;;4.00;;
75823;SDS011;64457;51.976;9.834;2023-10-31T00:35:13;9.53;;;4.20;;
75823;SDS011;64457;51.976;9.834;2023-10-31T00:37:40;9.03;;;3.83;;
75823;SDS011;64457;51.976;9.834;2023-10-31T00:40:10;9.50;;;3.93;;
75823;SDS011;64457;51.976;9.834;2023-10-31T00:42:39;8.43;;;4.00;;
75823;SDS011;64457;51.976;9.834;2023-10-31T00:45:07;14.43;;;4.03;;
75823;SDS011;64457;51.976;9.834;2023-10-31T00:47:36;10.53;;;4.30;;
75823;SDS011;64457;51.976;9.834;2023-10-31T00:50:04;8.97;;;4.27;;
75823;SDS011;64457;51.976;9.834;2023-10-31T00:52:34;9.53;;;4.27;;
75823;SDS011;64457;51.976;9.834;2023-10-31T00:55:02;10.17;;;4.00;;
75823;SDS011;64457;51.976;9.834;2023-10-31T00:57:32;9.60;;;4.20;;
75823;SDS011;64457;51.976;9.834;2023-10-31T01:00:01;9.87;;;4.27;;
75823;SDS011;64457;51.976;9.834;2023-10-31T01:02:29;11.30;;;4.37;;
75823;SDS011;64457;51.976;9.834;2023-10-31T01:04:57;11.70;;;5.07;;
75823;SDS011;64457;51.976;9.834;2023-10-31T01:07:25;23.07;;;5.10;;
75823;SDS011;64457;51.976;9.834;2023-10-31T01:09:53;9.77;;;4.20;;
75823;SDS011;64457;51.976;9.834;2023-10-31T01:12:21;9.37;;;4.63;;
75823;SDS011;64457;51.976;9.834;2023-10-31T01:14:50;9.40;;;4.90;;
75823;SDS011;64457;51.976;9.834;2023-10-31T01:17:19;12.60;;;4.60;;
75823;SDS011;64457;51.976;9.834;2023-10-31T01:19:46;10.07;;;5.53;;
75823;SDS011;64457;51.976;9.834;2023-10-31T01:22:14;9.50;;;4.73;;
75823;SDS011;64457;51.976;9.834;2023-10-31T01:24:43;10.27;;;5.07;;
75823;SDS011;64457;51.976;9.834;2023-10-31T01:27:11;10.13;;;5.23;;
75823;SDS011;64457;51.976;9.834;2023-10-31T01:29:39;12.63;;;5.33;;
75823;SDS011;64457;51.976;9.834;2023-10-31T01:32:09;9.73;;;5.07;;
75823;SDS011;64457;51.976;9.834;2023-10-31T01:34:38;9.27;;;5.20;;
75823;SDS011;64457;51.976;9.834;2023-10-31T01:37:06;15.97;;;5.47;;
75823;SDS011;64457;51.976;9.834;2023-10-31T01:39:35;11.90;;;5.77;;
75823;SDS011;64457;51.976;9.834;2023-10-31T01:42:04;10.17;;;5.53;;
75823;SDS011;64457;51.976;9.834;2023-10-31T01:44:32;9.57;;;5.17;;
75823;SDS011;64457;51.976;9.834;2023-10-31T01:47:00;11.10;;;5.73;;
75823;SDS011;64457;51.976;9.834;2023-10-31T01:49:32;10.07;;;4.77;;
75823;SDS011;64457;51.976;9.834;2023-10-31T01:52:00;11.37;;;5.67;;
75823;SDS011;64457;51.976;9.834;2023-10-31T01:54:30;10.30;;;6.10;;
75823;SDS011;64457;51.976;9.834;2023-10-31T01:56:59;11.30;;;5.90;;
75823;SDS011;64457;51.976;9.834;2023-10-31T01:59:28;12.97;;;6.10;;
75823;SDS011;64457;51.976;9.834;2023-10-31T02:01:55;11.77;;;6.10;;
75823;SDS011;64457;51.976;9.834;2023-10-31T02:04:26;10.97;;;5.47;;
75823;SDS011;64457;51.976;9.834;2023-10-31T02:06:56;14.97;;;6.77;;
75823;SDS011;64457;51.976;9.834;2023-10-31T02:09:24;12.40;;;6.43;;
75823;SDS011;64457;51.976;9.834;2023-10-31T02:11:54;11.37;;;6.57;;
75823;SDS011;64457;51.976;9.834;2023-10-31T02:14:23;10.47;;;5.20;;
75823;SDS011;64457;51.976;9.834;2023-10-31T02:16:51;13.00;;;5.77;;
75823;SDS011;64457;51.976;9.834;2023-10-31T02:19:19;11.73;;;6.13;;
75823;SDS011;64457;51.976;9.834;2023-10-31T02:21:49;11.17;;;6.13;;
75823;SDS011;64457;51.976;9.834;2023-10-31T02:24:16;12.33;;;6.87;;
75823;SDS011;64457;51.976;9.834;2023-10-31T02:26:44;11.07;;;6.03;;
75823;SDS011;64457;51.976;9.834;2023-10-31T02:29:11;14.57;;;6.80;;
75823;SDS011;64457;51.976;9.834;2023-10-31T02:31:41;10.90;;;5.70;;
75823;SDS011;64457;51.976;9.834;2023-10-31T02:34:08;10.90;;;6.33;;
75823;SDS011;64457;51.976;9.834;2023-10-31T02:36:36;11.07;;;6.30;;
75823;SDS011;64457;51.976;9.834;2023-10-31T02:39:05;11.90;;;6.40;;
75823;SDS011;64457;51.976;9.834;2023-10-31T02:41:33;10.93;;;6.30;;
75823;SDS011;64457;51.976;9.834;2023-10-31T02:44:01;13.10;;;6.40;;
75823;SDS011;64457;51.976;9.834;2023-10-31T02:46:30;10.77;;;6.13;;
75823;SDS011;64457;51.976;9.834;2023-10-31T02:48:57;14.13;;;6.43;;
75823;SDS011;64457;51.976;9.834;2023-10-31T02:51:25;10.83;;;5.80;;
75823;SDS011;64457;51.976;9.834;2023-10-31T02:53:54;12.23;;;6.30;;
75823;SDS011;64457;51.976;9.834;2023-10-31T02:56:23;15.47;;;6.40;;
75823;SDS011;64457;51.976;9.834;2023-10-31T02:58:50;10.90;;;6.60;;
75823;SDS011;64457;51.976;9.834;2023-10-31T03:01:18;14.10;;;6.03;;
75823;SDS011;64457;51.976;9.834;2023-10-31T03:03:46;8.83;;;4.27;;
75823;SDS011;64457;51.976;9.834;2023-10-31T03:06:13;11.33;;;3.30;;
75823;SDS011;64457;51.976;9.834;2023-10-31T03:08:41;6.97;;;3.07;;
75823;SDS011;64457;51.976;9.834;2023-10-31T03:11:08;5.83;;;2.57;;
75823;SDS011;64457;51.976;9.834;2023-10-31T03:13:37;6.70;;;2.70;;
75823;SDS011;64457;51.976;9.834;2023-10-31T03:16:05;5.57;;;2.13;;
75823;SDS011;64457;51.976;9.834;2023-10-31T03:18:34;5.40;;;2.23;;
75823;SDS011;64457;51.976;9.834;2023-10-31T03:21:02;4.33;;;1.60;;
75823;SDS011;64457;51.976;9.834;2023-10-31T03:23:30;5.03;;;2.10;;
75823;SDS011;64457;51.976;9.834;2023-10-31T03:26:00;5.10;;;2.00;;
75823;SDS011;64457;51.976;9.834;2023-10-31T03:28:27;5.20;;;1.90;;
75823;SDS011;64457;51.976;9.834;2023-10-31T03:30:56;4.73;;;1.53;;
75823;SDS011;64457;51.976;9.834;2023-10-31T03:33:24;4.40;;;1.43;;
75823;SDS011;64457;51.976;9.834;2023-10-31T03:35:51;4.30;;;1.30;;
75823;SDS011;64457;51.976;9.834;2023-10-31T03:38:18;4.00;;;1.20;;
75823;SDS011;64457;51.976;9.834;2023-10-31T03:40:46;4.33;;;1.30;;
75823;SDS011;64457;51.976;9.834;2023-10-31T03:43:14;4.43;;;1.57;;
75823;SDS011;64457;51.976;9.834;2023-10-31T03:45:42;4.20;;;1.13;;
75823;SDS011;64457;51.976;9.834;2023-10-31T03:48:11;3.90;;;1.10;;
75823;SDS011;64457;51.976;9.834;2023-10-31T03:50:39;6.37;;;1.20;;
75823;SDS011;64457;51.976;9.834;2023-10-31T03:53:07;4.37;;;1.30;;
75823;SDS011;64457;51.976;9.834;2023-10-31T03:55:35;4.30;;;1.33;;
75823;SDS011;64457;51.976;9.834;2023-10-31T03:58:03;5.90;;;1.60;;
75823;SDS011;64457;51.976;9.834;2023-10-31T04:00:31;4.50;;;1.20;;
75823;SDS011;64457;51.976;9.834;2023-10-31T04:02:59;3.70;;;1.13;;
75823;SDS011;64457;51.976;9.834;2023-10-31T04:05:28;3.70;;;0.97;;
75823;SDS011;64457;51.976;9.834;2023-10-31T04:07:56;4.60;;;1.40;;
75823;SDS011;64457;51.976;9.834;2023-10-31T04:10:24;4.10;;;1.30;;
75823;SDS011;64457;51.976;9.834;2023-10-31T04:12:52;4.13;;;1.30;;
75823;SDS011;64457;51.976;9.834;2023-10-31T04:15:20;4.20;;;1.20;;
75823;SDS011;64457;51.976;9.834;2023-10-31T04:17:48;4.20;;;1.50;;
75823;SDS011;64457;51.976;9.834;2023-10-31T04:20:16;4.20;;;1.40;;
75823;SDS011;64457;51.976;9.834;2023-10-31T04:22:45;4.33;;;1.50;;
75823;SDS011;64457;51.976;9.834;2023-10-31T04:25:14;4.97;;;1.50;;
75823;SDS011;64457;51.976;9.834;2023-10-31T04:27:42;8.47;;;1.50;;
75823;SDS011;64457;51.976;9.834;2023-10-31T04:30:10;5.00;;;1.40;;
75823;SDS011;64457;51.976;9.834;2023-10-31T04:32:41;4.47;;;1.30;;
75823;SDS011;64457;51.976;9.834;2023-10-31T04:35:09;5.60;;;1.43;;
75823;SDS011;64457;51.976;9.834;2023-10-31T04:37:36;4.63;;;1.30;;
75823;SDS011;64457;51.976;9.834;2023-10-31T04:40:07;3.90;;;1.17;;
75823;SDS011;64457;51.976;9.834;2023-10-31T04:42:38;5.53;;;1.50;;
75823;SDS011;64457;51.976;9.834;2023-10-31T04:45:08;4.10;;;1.30;;
75823;SDS011;64457;51.976;9.834;2023-10-31T04:47:36;4.83;;;1.30;;
75823;SDS011;64457;51.976;9.834;2023-10-31T04:50:04;6.47;;;1.77;;
75823;SDS011;64457;51.976;9.834;2023-10-31T04:52:32;6.90;;;1.50;;
75823;SDS011;64457;51.976;9.834;2023-10-31T04:54:59;3.80;;;1.23;;
75823;SDS011;64457;51.976;9.834;2023-10-31T04:57:30;4.10;;;1.30;;
75823;SDS011;64457;51.976;9.834;2023-10-31T04:59:58;5.43;;;1.43;;
75823;SDS011;64457;51.976;9.834;2023-10-31T05:02:26;5.30;;;1.60;;
75823;SDS011;64457;51.976;9.834;2023-10-31T05:04:53;4.40;;;1.40;;
75823;SDS011;64457;51.976;9.834;2023-10-31T05:07:23;4.20;;;1.50;;
75823;SDS011;64457;51.976;9.834;2023-10-31T05:09:51;5.60;;;1.70;;
75823;SDS011;64457;51.976;9.834;2023-10-31T05:12:18;5.03;;;1.70;;
75823;SDS011;64457;51.976;9.834;2023-10-31T05:14:48;4.80;;;1.87;;
75823;SDS011;64457;51.976;9.834;2023-10-31T05:17:16;4.57;;;1.50;;
75823;SDS011;64457;51.976;9.834;2023-10-31T05:19:43;4.63;;;1.70;;
75823;SDS011;64457;51.976;9.834;2023-10-31T05:22:11;4.80;;;1.83;;
75823;SDS011;64457;51.976;9.834;2023-10-31T05:24:38;5.90;;;2.13;;
75823;SDS011;64457;51.976;9.834;2023-10-31T05:27:07;5.77;;;2.27;;
75823;SDS011;64457;51.976;9.834;2023-10-31T05:29:38;4.97;;;2.23;;
75823;SDS011;64457;51.976;9.834;2023-10-31T05:32:07;6.07;;;2.30;;
75823;SDS011;64457;51.976;9.834;2023-10-31T05:34:35;5.17;;;2.30;;
75823;SDS011;64457;51.976;9.834;2023-10-31T05:37:02;4.70;;;2.10;;
75823;SDS011;64457;51.976;9.834;2023-10-31T05:39:31;5.27;;;2.30;;
75823;SDS011;64457;51.976;9.834;2023-10-31T05:42:02;7.73;;;2.23;;
75823;SDS011;64457;51.976;9.834;2023-10-31T05:44:29;5.50;;;2.30;;
75823;SDS011;64457;51.976;9.834;2023-10-31T05:46:57;5.70;;;2.37;;
75823;SDS011;64457;51.976;9.834;2023-10-31T05:49:26;6.17;;;2.83;;
75823;SDS011;64457;51.976;9.834;2023-10-31T05:51:54;5.73;;;2.30;;
75823;SDS011;64457;51.976;9.834;2023-10-31T05:54:21;5.83;;;2.20;;
75823;SDS011;64457;51.976;9.834;2023-10-31T05:56:50;5.97;;;2.70;;
75823;SDS011;64457;51.976;9.834;2023-10-31T05:59:17;5.20;;;2.50;;
75823;SDS011;64457;51.976;9.834;2023-10-31T06:01:44;5.00;;;2.10;;
75823;SDS011;64457;51.976;9.834;2023-10-31T06:04:12;5.50;;;2.40;;
75823;SDS011;64457;51.976;9.834;2023-10-31T06:06:41;6.13;;;2.07;;
75823;SDS011;64457;51.976;9.834;2023-10-31T06:09:08;5.83;;;2.47;;
75823;SDS011;64457;51.976;9.834;2023-10-31T06:11:39;5.47;;;2.43;;
75823;SDS011;64457;51.976;9.834;2023-10-31T06:14:08;6.00;;;2.30;;
75823;SDS011;64457;51.976;9.834;2023-10-31T06:16:39;6.30;;;2.53;;
75823;SDS011;64457;51.976;9.834;2023-10-31T06:19:08;5.10;;;2.13;;
75823;SDS011;64457;51.976;9.834;2023-10-31T06:21:36;5.63;;;2.67;;
75823;SDS011;64457;51.976;9.834;2023-10-31T06:24:08;7.80;;;2.50;;
75823;SDS011;64457;51.976;9.834;2023-10-31T06:26:36;8.00;;;3.27;;
75823;SDS011;64457;51.976;9.834;2023-10-31T06:29:04;5.80;;;2.30;;
75823;SDS011;64457;51.976;9.834;2023-10-31T06:31:32;7.77;;;3.10;;
75823;SDS011;64457;51.976;9.834;2023-10-31T06:34:01;10.70;;;3.10;;
75823;SDS011;64457;51.976;9.834;2023-10-31T06:36:29;6.73;;;2.83;;
75823;SDS011;64457;51.976;9.834;2023-10-31T06:38:56;7.80;;;3.23;;
75823;SDS011;64457;51.976;9.834;2023-10-31T06:41:25;6.47;;;3.17;;
75823;SDS011;64457;51.976;9.834;2023-10-31T06:43:53;6.37;;;3.10;;
75823;SDS011;64457;51.976;9.834;2023-10-31T06:46:21;8.80;;;3.03;;
75823;SDS011;64457;51.976;9.834;2023-10-31T06:48:50;7.17;;;3.50;;
75823;SDS011;64457;51.976;9.834;2023-10-31T06:51:19;6.67;;;3.37;;
75823;SDS011;64457;51.976;9.834;2023-10-31T06:53:47;8.70;;;3.70;;
75823;SDS011;64457;51.976;9.834;2023-10-31T06:56:16;9.07;;;3.60;;
75823;SDS011;64457;51.976;9.834;2023-10-31T06:58:45;7.43;;;3.60;;
75823;SDS011;64457;51.976;9.834;2023-10-31T07:01:14;8.30;;;3.63;;
75823;SDS011;64457;51.976;9.834;2023-10-31T07:03:44;7.97;;;3.30;;
75823;SDS011;64457;51.976;9.834;2023-10-31T07:06:13;7.80;;;4.07;;
75823;SDS011;64457;51.976;9.834;2023-10-31T07:08:41;7.87;;;3.47;;
75823;SDS011;64457;51.976;9.834;2023-10-31T07:11:09;8.90;;;3.93;;
75823;SDS011;64457;51.976;9.834;2023-10-31T07:13:36;7.77;;;3.57;;
75823;SDS011;64457;51.976;9.834;2023-10-31T07:16:06;7.50;;;3.80;;
75823;SDS011;64457;51.976;9.834;2023-10-31T07:18:34;10.23;;;3.67;;
75823;SDS011;64457;51.976;9.834;2023-10-31T07:21:03;7.17;;;3.97;;
75823;SDS011;64457;51.976;9.834;2023-10-31T07:23:32;12.00;;;6.70;;
75823;SDS011;64457;51.976;9.834;2023-10-31T07:26:00;10.20;;;3.80;;
75823;SDS011;64457;51.976;9.834;2023-10-31T07:28:30;8.83;;;4.17;;
75823;SDS011;64457;51.976;9.834;2023-10-31T07:30:58;8.00;;;4.03;;
75823;SDS011;64457;51.976;9.834;2023-10-31T07:33:29;7.87;;;3.70;;
75823;SDS011;64457;51.976;9.834;2023-10-31T07:35:57;8.03;;;3.60;;
75823;SDS011;64457;51.976;9.834;2023-10-31T07:38:24;7.97;;;3.80;;
75823;SDS011;64457;51.976;9.834;2023-10-31T07:40:52;6.70;;;3.33;;
75823;SDS011;64457;51.976;9.834;2023-10-31T07:43:20;6.67;;;3.17;;
75823;SDS011;64457;51.976;9.834;2023-10-31T07:45:48;7.00;;;3.37;;
75823;SDS011;64457;51.976;9.834;2023-10-31T07:48:16;11.00;;;3.87;;
75823;SDS011;64457;51.976;9.834;2023-10-31T07:50:48;6.80;;;3.20;;
75823;SDS011;64457;51.976;9.834;2023-10-31T07:53:17;6.60;;;3.27;;
75823;SDS011;64457;51.976;9.834;2023-10-31T07:55:45;6.73;;;3.10;;
75823;SDS011;64457;51.976;9.834;2023-10-31T07:58:12;6.70;;;3.03;;
75823;SDS011;64457;51.976;9.834;2023-10-31T08:00:39;7.50;;;3.00;;
75823;SDS011;64457;51.976;9.834;2023-10-31T08:03:08;5.93;;;2.73;;
75823;SDS011;64457;51.976;9.834;2023-10-31T08:05:35;6.93;;;3.10;;
75823;SDS011;64457;51.976;9.834;2023-10-31T08:08:05;9.67;;;3.10;;
75823;SDS011;64457;51.976;9.834;2023-10-31T08:10:33;6.27;;;2.80;;
75823;SDS011;64457;51.976;9.834;2023-10-31T08:13:01;6.47;;;3.20;;
75823;SDS011;64457;51.976;9.834;2023-10-31T08:15:29;8.57;;;2.47;;
75823;SDS011;64457;51.976;9.834;2023-10-31T08:17:58;6.90;;;3.13;;
75823;SDS011;64457;51.976;9.834;2023-10-31T08:20:25;6.70;;;3.00;;
75823;SDS011;64457;51.976;9.834;2023-10-31T08:22:59;5.70;;;2.40;;
75823;SDS011;64457;51.976;9.834;2023-10-31T08:25:28;8.70;;;2.80;;
75823;SDS011;64457;51.976;9.834;2023-10-31T08:27:56;6.57;;;2.70;;
75823;SDS011;64457;51.976;9.834;2023-10-31T08:30:24;10.70;;;2.53;;
75823;SDS011;64457;51.976;9.834;2023-10-31T08:32:53;5.40;;;2.30;;
75823;SDS011;64457;51.976;9.834;2023-10-31T08:35:22;6.70;;;2.57;;
75823;SDS011;64457;51.976;9.834;2023-10-31T08:37:50;5.40;;;2.50;;
75823;SDS011;64457;51.976;9.834;2023-10-31T08:40:19;5.90;;;2.43;;
75823;SDS011;64457;51.976;9.834;2023-10-31T08:42:51;7.07;;;2.03;;
75823;SDS011;64457;51.976;9.834;2023-10-31T08:45:24;6.17;;;2.53;;
75823;SDS011;64457;51.976;9.834;2023-10-31T08:47:53;6.57;;;2.33;;
75823;SDS011;64457;51.976;9.834;2023-10-31T08:50:21;4.90;;;1.97;;
75823;SDS011;64457;51.976;9.834;2023-10-31T08:52:51;8.77;;;2.00;;
75823;SDS011;64457;51.976;9.834;2023-10-31T08:55:21;5.50;;;1.90;;
75823;SDS011;64457;51.976;9.834;2023-10-31T08:57:51;5.97;;;2.03;;
75823;SDS011;64457;51.976;9.834;2023-10-31T09:00:19;4.63;;;1.80;;
75823;SDS011;64457;51.976;9.834;2023-10-31T09:02:46;5.10;;;1.90;;
75823;SDS011;64457;51.976;9.834;2023-10-31T09:05:14;5.57;;;2.23;;
75823;SDS011;64457;51.976;9.834;2023-10-31T09:07:42;5.20;;;2.00;;
75823;SDS011;64457;51.976;9.834;2023-10-31T09:10:11;5.33;;;2.00;;
75823;SDS011;64457;51.976;9.834;2023-10-31T09:12:39;7.13;;;2.33;;
75823;SDS011;64457;51.976;9.834;2023-10-31T09:15:09;4.93;;;2.00;;
75823;SDS011;64457;51.976;9.834;2023-10-31T09:17:38;6.60;;;1.97;;
75823;SDS011;64457;51.976;9.834;2023-10-31T09:20:06;5.83;;;2.10;;
75823;SDS011;64457;51.976;9.834;2023-10-31T09:22:36;4.90;;;1.80;;
75823;SDS011;64457;51.976;9.834;2023-10-31T09:25:04;5.77;;;2.23;;
75823;SDS011;64457;51.976;9.834;2023-10-31T09:27:33;5.30;;;1.83;;
75823;SDS011;64457;51.976;9.834;2023-10-31T09:30:01;5.30;;;1.40;;
75823;SDS011;64457;51.976;9.834;2023-10-31T09:32:31;4.23;;;1.30;;
75823;SDS011;64457;51.976;9.834;2023-10-31T09:34:58;4.20;;;1.20;;
75823;SDS011;64457;51.976;9.834;2023-10-31T09:37:27;4.73;;;1.23;;
75823;SDS011;64457;51.976;9.834;2023-10-31T09:39:54;3.70;;;1.07;;
75823;SDS011;64457;51.976;9.834;2023-10-31T09:42:22;4.13;;;1.27;;
75823;SDS011;64457;51.976;9.834;2023-10-31T09:44:50;6.03;;;1.27;;
75823;SDS011;64457;51.976;9.834;2023-10-31T09:47:18;3.97;;;1.20;;
75823;SDS011;64457;51.976;9.834;2023-10-31T09:49:49;3.90;;;1.00;;
75823;SDS011;64457;51.976;9.834;2023-10-31T09:52:17;3.87;;;0.90;;
75823;SDS011;64457;51.976;9.834;2023-10-31T09:54:46;3.77;;;1.00;;
75823;SDS011;64457;51.976;9.834;2023-10-31T09:57:15;4.43;;;1.07;;
75823;SDS011;64457;51.976;9.834;2023-10-31T09:59:45;3.80;;;0.93;;
75823;SDS011;64457;51.976;9.834;2023-10-31T10:02:13;3.53;;;0.80;;
75823;SDS011;64457;51.976;9.834;2023-10-31T10:04:41;5.30;;;0.80;;
75823;SDS011;64457;51.976;9.834;2023-10-31T10:07:10;4.10;;;1.00;;
75823;SDS011;64457;51.976;9.834;2023-10-31T10:09:44;4.00;;;0.80;;
75823;SDS011;64457;51.976;9.834;2023-10-31T10:12:14;3.43;;;0.70;;
75823;SDS011;64457;51.976;9.834;2023-10-31T10:14:44;4.00;;;0.73;;
75823;SDS011;64457;51.976;9.834;2023-10-31T10:17:14;3.87;;;1.00;;
75823;SDS011;64457;51.976;9.834;2023-10-31T10:19:43;3.93;;;0.80;;
75823;SDS011;64457;51.976;9.834;2023-10-31T10:22:13;4.00;;;1.00;;
75823;SDS011;64457;51.976;9.834;2023-10-31T10:24:42;6.90;;;0.90;;
75823;SDS011;64457;51.976;9.834;2023-10-31T10:27:10;3.17;;;0.80;;
75823;SDS011;64457;51.976;9.834;2023-10-31T10:29:42;3.33;;;0.80;;
75823;SDS011;64457;51.976;9.834;2023-10-31T10:32:13;3.40;;;0.80;;
75823;SDS011;64457;51.976;9.834;2023-10-31T10:34:43;4.40;;;0.90;;
75823;SDS011;64457;51.976;9.834;2023-10-31T10:37:14;4.00;;;0.83;;
75823;SDS011;64457;51.976;9.834;2023-10-31T10:39:45;3.80;;;1.00;;
75823;SDS011;64457;51.976;9.834;2023-10-31T10:42:17;4.43;;;1.00;;
75823;SDS011;64457;51.976;9.834;2023-10-31T10:44:48;4.57;;;1.23;;
75823;SDS011;64457;51.976;9.834;2023-10-31T10:47:20;5.00;;;1.30;;
75823;SDS011;64457;51.976;9.834;2023-10-31T10:49:49;4.60;;;1.43;;
75823;SDS011;64457;51.976;9.834;2023-10-31T10:52:27;4.43;;;1.17;;
75823;SDS011;64457;51.976;9.834;2023-10-31T10:55:03;4.00;;;1.10;;
75823;SDS011;64457;51.976;9.834;2023-10-31T10:57:40;5.03;;;1.87;;
75823;SDS011;64457;51.976;9.834;2023-10-31T11:00:16;5.47;;;1.73;;
75823;SDS011;64457;51.976;9.834;2023-10-31T11:02:50;4.73;;;1.53;;
75823;SDS011;64457;51.976;9.834;2023-10-31T11:05:21;5.07;;;1.90;;
75823;SDS011;64457;51.976;9.834;2023-10-31T11:07:55;5.93;;;1.90;;
75823;SDS011;64457;51.976;9.834;2023-10-31T11:10:27;6.03;;;2.33;;
75823;SDS011;64457;51.976;9.834;2023-10-31T11:13:06;5.60;;;2.10;;
75823;SDS011;64457;51.976;9.834;2023-10-31T11:15:37;6.17;;;2.47;;
75823;SDS011;64457;51.976;9.834;2023-10-31T11:18:05;6.50;;;2.60;;
75823;SDS011;64457;51.976;9.834;2023-10-31T11:20:37;6.70;;;2.63;;
75823;SDS011;64457;51.976;9.834;2023-10-31T11:23:08;7.80;;;2.53;;
75823;SDS011;64457;51.976;9.834;2023-10-31T11:25:38;7.17;;;2.93;;
75823;SDS011;64457;51.976;9.834;2023-10-31T11:28:11;5.77;;;2.53;;
75823;SDS011;64457;51.976;9.834;2023-10-31T11:30:40;6.77;;;3.00;;
75823;SDS011;64457;51.976;9.834;2023-10-31T11:33:11;5.80;;;2.30;;
75823;SDS011;64457;51.976;9.834;2023-10-31T11:35:39;7.40;;;2.93;;
75823;SDS011;64457;51.976;9.834;2023-10-31T11:38:11;6.30;;;3.10;;
75823;SDS011;64457;51.976;9.834;2023-10-31T11:40:57;7.90;;;3.00;;
75823;SDS011;64457;51.976;9.834;2023-10-31T11:43:50;8.23;;;3.63;;
75823;SDS011;64457;51.976;9.834;2023-10-31T11:46:20;7.67;;;3.67;;
75823;SDS011;64457;51.976;9.834;2023-10-31T11:48:53;8.27;;;3.47;;
75823;SDS011;64457;51.976;9.834;2023-10-31T11:51:23;7.80;;;3.47;;
75823;SDS011;64457;51.976;9.834;2023-10-31T11:53:55;7.73;;;3.23;;
75823;SDS011;64457;51.976;9.834;2023-10-31T11:56:23;6.43;;;3.00;;
75823;SDS011;64457;51.976;9.834;2023-10-31T11:58:55;7.83;;;3.00;;
75823;SDS011;64457;51.976;9.834;2023-10-31T12:01:28;6.30;;;3.20;;
75823;SDS011;64457;51.976;9.834;2023-10-31T12:03:56;6.73;;;3.30;;
75823;SDS011;64457;51.976;9.834;2023-10-31T12:06:24;6.87;;;3.43;;
75823;SDS011;64457;51.976;9.834;2023-10-31T12:08:52;7.33;;;3.10;;
75823;SDS011;64457;51.976;9.834;2023-10-31T12:11:28;6.00;;;3.03;;
75823;SDS011;64457;51.976;9.834;2023-10-31T12:13:58;8.23;;;3.30;;
75823;SDS011;64457;51.976;9.834;2023-10-31T12:16:30;7.10;;;3.00;;
75823;SDS011;64457;51.976;9.834;2023-10-31T12:19:01;6.33;;;3.20;;
75823;SDS011;64457;51.976;9.834;2023-10-31T12:21:34;7.33;;;2.70;;
75823;SDS011;64457;51.976;9.834;2023-10-31T12:24:07;7.50;;;3.20;;
75823;SDS011;64457;51.976;9.834;2023-10-31T12:26:36;5.80;;;2.80;;
75823;SDS011;64457;51.976;9.834;2023-10-31T12:29:09;6.33;;;2.60;;
75823;SDS011;64457;51.976;9.834;2023-10-31T12:31:39;6.10;;;2.80;;
75823;SDS011;64457;51.976;9.834;2023-10-31T12:34:12;5.70;;;2.77;;
75823;SDS011;64457;51.976;9.834;2023-10-31T12:36:40;6.10;;;2.57;;
75823;SDS011;64457;51.976;9.834;2023-10-31T12:39:11;8.30;;;2.83;;
75823;SDS011;64457;51.976;9.834;2023-10-31T12:41:39;7.90;;;2.73;;
75823;SDS011;64457;51.976;9.834;2023-10-31T12:44:07;5.70;;;2.77;;
75823;SDS011;64457;51.976;9.834;2023-10-31T12:46:38;6.00;;;2.87;;
75823;SDS011;64457;51.976;9.834;2023-10-31T12:49:11;5.40;;;2.17;;
75823;SDS011;64457;51.976;9.834;2023-10-31T12:51:54;6.07;;;2.40;;
75823;SDS011;64457;51.976;9.834;2023-10-31T12:54:31;5.80;;;2.63;;
75823;SDS011;64457;51.976;9.834;2023-10-31T12:57:00;5.60;;;2.60;;
75823;SDS011;64457;51.976;9.834;2023-10-31T12:59:29;6.33;;;2.77;;
75823;SDS011;64457;51.976;9.834;2023-10-31T13:01:58;6.40;;;2.70;;
75823;SDS011;64457;51.976;9.834;2023-10-31T13:04:26;6.60;;;2.70;;
75823;SDS011;64457;51.976;9.834;2023-10-31T13:06:57;4.90;;;2.30;;
75823;SDS011;64457;51.976;9.834;2023-10-31T13:09:28;9.23;;;2.37;;
75823;SDS011;64457;51.976;9.834;2023-10-31T13:11:59;5.50;;;2.30;;
75823;SDS011;64457;51.976;9.834;2023-10-31T13:14:28;6.40;;;2.80;;
75823;SDS011;64457;51.976;9.834;2023-10-31T13:16:56;5.17;;;2.40;;
75823;SDS011;64457;51.976;9.834;2023-10-31T13:19:24;5.97;;;2.47;;
75823;SDS011;64457;51.976;9.834;2023-10-31T13:21:52;6.10;;;2.90;;
75823;SDS011;64457;51.976;9.834;2023-10-31T13:24:19;5.60;;;2.40;;
75823;SDS011;64457;51.976;9.834;2023-10-31T13:26:49;5.70;;;2.70;;
75823;SDS011;64457;51.976;9.834;2023-10-31T13:29:18;5.50;;;2.70;;
75823;SDS011;64457;51.976;9.834;2023-10-31T13:31:46;6.00;;;2.60;;
75823;SDS011;64457;51.976;9.834;2023-10-31T13:34:14;5.97;;;3.07;;
75823;SDS011;64457;51.976;9.834;2023-10-31T13:36:42;5.53;;;2.53;;
75823;SDS011;64457;51.976;9.834;2023-10-31T13:39:09;7.73;;;3.33;;
75823;SDS011;64457;51.976;9.834;2023-10-31T13:41:38;6.70;;;3.10;;
75823;SDS011;64457;51.976;9.834;2023-10-31T13:44:07;6.20;;;2.63;;
75823;SDS011;64457;51.976;9.834;2023-10-31T13:46:35;5.90;;;2.77;;
75823;SDS011;64457;51.976;9.834;2023-10-31T13:49:03;5.70;;;2.97;;
75823;SDS011;64457;51.976;9.834;2023-10-31T13:51:33;7.43;;;3.23;;
75823;SDS011;64457;51.976;9.834;2023-10-31T13:54:01;5.63;;;2.67;;
75823;SDS011;64457;51.976;9.834;2023-10-31T13:56:30;6.10;;;2.90;;
75823;SDS011;64457;51.976;9.834;2023-10-31T13:58:58;8.40;;;3.50;;
75823;SDS011;64457;51.976;9.834;2023-10-31T14:01:27;5.50;;;2.70;;
75823;SDS011;64457;51.976;9.834;2023-10-31T14:03:55;5.33;;;2.87;;
75823;SDS011;64457;51.976;9.834;2023-10-31T14:06:23;7.93;;;3.30;;
75823;SDS011;64457;51.976;9.834;2023-10-31T14:08:57;6.90;;;3.10;;
75823;SDS011;64457;51.976;9.834;2023-10-31T14:11:27;7.80;;;3.40;;
75823;SDS011;64457;51.976;9.834;2023-10-31T14:13:55;6.60;;;3.27;;
75823;SDS011;64457;51.976;9.834;2023-10-31T14:16:25;7.00;;;3.43;;
75823;SDS011;64457;51.976;9.834;2023-10-31T14:18:55;8.90;;;3.77;;
75823;SDS011;64457;51.976;9.834;2023-10-31T14:21:23;7.30;;;3.80;;
75823;SDS011;64457;51.976;9.834;2023-10-31T14:23:52;10.27;;;3.77;;
75823;SDS011;64457;51.976;9.834;2023-10-31T14:26:20;11.87;;;4.17;;
75823;SDS011;64457;51.976;9.834;2023-10-31T14:28:49;8.50;;;4.30;;
75823;SDS011;64457;51.976;9.834;2023-10-31T14:31:17;8.83;;;4.47;;
75823;SDS011;64457;51.976;9.834;2023-10-31T14:33:47;8.70;;;4.40;;
75823;SDS011;64457;51.976;9.834;2023-10-31T14:36:15;7.00;;;4.00;;
75823;SDS011;64457;51.976;9.834;2023-10-31T14:38:43;8.40;;;4.00;;
75823;SDS011;64457;51.976;9.834;2023-10-31T14:41:13;8.37;;;4.50;;
75823;SDS011;64457;51.976;9.834;2023-10-31T14:43:41;8.20;;;4.60;;
75823;SDS011;64457;51.976;9.834;2023-10-31T14:46:09;10.00;;;4.40;;
75823;SDS011;64457;51.976;9.834;2023-10-31T14:48:37;8.57;;;4.57;;
75823;SDS011;64457;51.976;9.834;2023-10-31T14:51:07;7.43;;;4.03;;
75823;SDS011;64457;51.976;9.834;2023-10-31T14:53:35;10.00;;;4.43;;
75823;SDS011;64457;51.976;9.834;2023-10-31T14:56:03;10.23;;;4.43;;